Time;durP1;ratioP1;P1;durP2;ratioP2;P2;SDS_P1;SDS_P2;PMS_P1;PMS_P2;Temp;Humidity;BMP_temperature;BMP_pressure;BME280_temperature;BME280_humidity;BME280_pressure;Samples;Min_cycle;Max_cycle;Signal;HPM_P1;HPM_P2
2021/10/30 00:01:57;;;;;;;15.85;10.85;;;;;;;13.31;75.62;100563.56;4972549;28;20635;-56
2021/10/30 00:04:22;;;;;;;17.88;10.40;;;;;;;13.29;75.85;100574.94;4990975;28;20080;-55
2021/10/30 00:06:48;;;;;;;15.40;9.55;;;;;;;13.24;75.33;100571.44;4996631;28;20042;-55
2021/10/30 00:09:13;;;;;;;17.88;9.95;;;;;;;13.19;75.77;100562.72;4997324;28;20084;-54
2021/10/30 00:11:38;;;;;;;18.10;10.27;;;;;;;13.20;75.87;100574.94;4991593;28;20092;-55
2021/10/30 00:14:04;;;;;;;16.15;9.70;;;;;;;13.12;75.81;100566.19;4987903;28;20045;-55
2021/10/30 00:16:29;;;;;;;17.70;10.20;;;;;;;13.11;75.77;100570.59;4993867;28;20100;-53
2021/10/30 00:18:54;;;;;;;17.73;10.05;;;;;;;13.09;75.69;100574.06;4996565;28;20033;-57
2021/10/30 00:21:20;;;;;;;17.98;11.30;;;;;;;13.06;76.06;100568.84;4994591;28;20041;-58
2021/10/30 00:23:46;;;;;;;17.70;10.38;;;;;;;13.05;76.09;100570.59;4998824;28;20042;-55
2021/10/30 00:26:11;;;;;;;18.15;10.73;;;;;;;13.08;76.01;100560.13;4990826;28;20631;-55
2021/10/30 00:28:37;;;;;;;19.23;10.65;;;;;;;13.17;76.31;100567.13;4995094;28;20616;-57
2021/10/30 00:31:03;;;;;;;18.55;10.95;;;;;;;13.24;76.14;100569.69;4994691;28;20467;-54
2021/10/30 00:33:28;;;;;;;21.05;11.52;;;;;;;13.35;76.77;100565.34;5000080;28;20081;-54
2021/10/30 00:35:53;;;;;;;19.67;11.02;;;;;;;13.49;76.89;100562.66;4987155;28;20091;-55
2021/10/30 00:38:19;;;;;;;18.90;11.05;;;;;;;13.58;76.78;100567.88;4993604;28;20133;-55
2021/10/30 00:40:44;;;;;;;18.58;10.68;;;;;;;13.72;76.55;100563.44;4992297;28;20141;-54
2021/10/30 00:43:10;;;;;;;15.60;10.52;;;;;;;13.84;76.02;100561.66;4991517;28;20111;-55
2021/10/30 00:45:35;;;;;;;18.52;10.50;;;;;;;13.95;75.69;100562.47;4998186;28;20527;-57
2021/10/30 00:48:00;;;;;;;17.63;10.05;;;;;;;14.05;75.19;100564.13;4995760;28;20041;-56
2021/10/30 00:50:26;;;;;;;17.33;10.23;;;;;;;14.12;74.65;100564.09;5001305;28;20092;-55
2021/10/30 00:52:53;;;;;;;13.73;9.50;;;;;;;14.21;73.88;100561.41;5001035;28;20337;-55
2021/10/30 00:55:21;;;;;;;15.02;9.02;;;;;;;14.27;73.37;100559.66;5001039;28;20020;-55
2021/10/30 00:57:47;;;;;;;13.05;8.48;;;;;;;14.35;72.72;100552.59;4984437;28;20050;-55
2021/10/30 01:00:13;;;;;;;13.45;8.82;;;;;;;14.36;72.39;100549.97;4994401;28;20066;-55
2021/10/30 01:02:38;;;;;;;12.73;8.60;;;;;;;14.42;71.89;100543.84;5013521;28;20215;-54
2021/10/30 01:05:05;;;;;;;13.57;8.52;;;;;;;14.46;71.53;100538.53;4997644;28;20029;-51
2021/10/30 01:07:32;;;;;;;12.63;8.35;;;;;;;14.52;71.40;100533.25;4985564;28;20038;-56
2021/10/30 01:09:58;;;;;;;13.52;8.32;;;;;;;14.54;71.48;100531.50;4995116;28;20352;-55
2021/10/30 01:12:24;;;;;;;13.25;8.40;;;;;;;14.56;71.38;100523.63;5000224;28;20097;-55
2021/10/30 01:14:50;;;;;;;12.10;8.57;;;;;;;14.57;71.17;100526.25;4999926;28;20081;-53
2021/10/30 01:17:15;;;;;;;15.15;9.00;;;;;;;14.58;71.40;100521.81;5024016;28;20176;-57
2021/10/30 01:19:41;;;;;;;14.73;9.13;;;;;;;14.46;71.86;100519.31;4995907;28;20041;-54
2021/10/30 01:22:06;;;;;;;15.52;9.10;;;;;;;14.56;71.35;100521.88;4990584;28;20045;-55
2021/10/30 01:24:32;;;;;;;13.52;9.18;;;;;;;14.59;71.70;100520.94;4994670;28;20560;-58
2021/10/30 01:26:57;;;;;;;15.35;9.60;;;;;;;14.59;71.57;100518.31;4998720;28;20127;-56
2021/10/30 01:29:23;;;;;;;16.65;10.60;;;;;;;14.54;71.54;100517.50;4998972;28;21411;-55
2021/10/30 01:31:49;;;;;;;15.25;10.65;;;;;;;14.55;71.61;100512.25;4997883;28;20331;-56
2021/10/30 01:34:14;;;;;;;13.82;9.93;;;;;;;14.65;71.15;100515.66;4988334;28;20778;-56
2021/10/30 01:36:40;;;;;;;17.02;11.40;;;;;;;14.63;71.63;100522.69;4999947;28;20045;-56
2021/10/30 01:39:07;;;;;;;17.63;11.73;;;;;;;14.54;72.10;100515.75;4995296;28;20116;-59
2021/10/30 01:41:33;;;;;;;17.75;12.13;;;;;;;14.41;72.51;100515.84;5001866;28;20454;-55
2021/10/30 01:43:59;;;;;;;16.92;11.40;;;;;;;14.61;71.89;100513.94;4983500;28;20044;-55
2021/10/30 01:46:25;;;;;;;15.20;11.23;;;;;;;14.55;72.26;100507.00;4998393;28;20049;-56
2021/10/30 01:48:51;;;;;;;15.20;11.15;;;;;;;14.63;71.80;100508.69;4998689;28;20033;-54
2021/10/30 01:51:17;;;;;;;17.30;11.25;;;;;;;14.50;72.13;100500.94;4995534;28;20041;-54
2021/10/30 01:53:43;;;;;;;16.77;10.95;;;;;;;14.63;71.74;100503.44;4996199;28;20079;-56
2021/10/30 01:56:09;;;;;;;16.35;10.30;;;;;;;14.65;71.65;100493.78;4986236;28;20424;-53
2021/10/30 01:58:35;;;;;;;16.52;10.32;;;;;;;14.67;71.71;100495.53;5000853;28;20524;-55
2021/10/30 02:01:01;;;;;;;17.63;10.80;;;;;;;14.62;71.90;100486.84;4997551;28;20438;-56
2021/10/30 02:03:29;;;;;;;14.57;10.10;;;;;;;14.56;72.31;100485.13;4998904;28;20084;-55
2021/10/30 02:05:55;;;;;;;13.63;9.27;;;;;;;14.50;72.12;100484.31;4992104;28;20037;-55
2021/10/30 02:08:21;;;;;;;14.50;9.40;;;;;;;14.41;72.73;100471.28;4995299;28;20053;-56
2021/10/30 02:10:47;;;;;;;11.23;8.40;;;;;;;14.37;72.63;100467.81;4996271;28;20038;-55
2021/10/30 02:13:13;;;;;;;14.73;8.18;;;;;;;14.37;72.41;100459.94;4995914;28;20616;-58
2021/10/30 02:15:38;;;;;;;12.20;8.52;;;;;;;14.40;72.17;100445.94;4991838;28;20102;-57
2021/10/30 02:18:05;;;;;;;14.25;8.50;;;;;;;14.39;72.18;100449.47;4995460;28;20782;-54
2021/10/30 02:20:30;;;;;;;14.15;8.50;;;;;;;14.36;72.12;100447.69;4998911;28;20041;-55
2021/10/30 02:22:56;;;;;;;11.50;8.02;;;;;;;14.29;72.55;100453.00;5001005;28;20030;-56
2021/10/30 02:25:21;;;;;;;15.57;8.60;;;;;;;14.21;72.91;100455.66;4996097;28;20137;-57
2021/10/30 02:27:47;;;;;;;12.00;8.20;;;;;;;14.31;72.61;100448.59;4998306;28;20049;-57
2021/10/30 02:30:13;;;;;;;12.63;8.25;;;;;;;14.21;72.68;100442.56;4992045;28;21028;-55
2021/10/30 02:32:38;;;;;;;14.55;9.35;;;;;;;14.23;72.89;100432.94;4992790;28;20295;-55
2021/10/30 02:35:04;;;;;;;14.68;9.23;;;;;;;14.20;72.78;100422.50;4992636;28;20211;-56
2021/10/30 02:37:30;;;;;;;14.07;8.80;;;;;;;14.21;72.88;100418.97;4996830;28;20050;-57
2021/10/30 02:39:55;;;;;;;14.15;9.30;;;;;;;14.19;72.48;100410.25;5007380;28;20046;-57
2021/10/30 02:42:20;;;;;;;15.13;9.05;;;;;;;13.97;73.11;100399.06;4994742;28;20108;-55
2021/10/30 02:44:46;;;;;;;12.68;8.63;;;;;;;13.78;73.85;100403.56;4992986;28;20053;-56
2021/10/30 02:47:11;;;;;;;12.93;8.80;;;;;;;13.67;74.28;100401.91;4992201;28;20083;-54
2021/10/30 02:49:37;;;;;;;14.13;9.10;;;;;;;13.56;74.90;100399.38;4998353;28;20078;-56
2021/10/30 02:52:03;;;;;;;15.80;9.90;;;;;;;13.90;73.85;100392.16;4989229;28;20265;-55
2021/10/30 02:54:28;;;;;;;15.00;9.68;;;;;;;13.91;73.80;100390.38;4997792;28;20043;-52
2021/10/30 02:56:53;;;;;;;14.05;9.30;;;;;;;13.95;73.99;100389.50;4999434;28;20540;-55
2021/10/30 02:59:19;;;;;;;13.80;9.50;;;;;;;13.97;73.92;100378.09;4998199;28;20057;-55
2021/10/30 03:01:44;;;;;;;15.18;9.38;;;;;;;13.98;74.17;100368.50;4994582;28;20072;-56
2021/10/30 03:04:10;;;;;;;14.70;9.80;;;;;;;14.01;74.02;100361.50;4989832;28;20550;-56
2021/10/30 03:06:35;;;;;;;15.43;9.60;;;;;;;13.99;74.30;100362.38;4999592;28;20046;-54
2021/10/30 03:09:00;;;;;;;14.27;9.32;;;;;;;14.10;73.85;100355.28;4994143;28;20034;-53
2021/10/30 03:11:26;;;;;;;16.85;9.68;;;;;;;14.04;74.23;100350.97;4994385;28;20077;-54
2021/10/30 03:13:52;;;;;;;13.68;9.18;;;;;;;14.09;74.25;100353.53;4995321;28;20053;-58
2021/10/30 03:16:17;;;;;;;13.38;8.95;;;;;;;14.19;73.96;100353.44;4992374;28;20073;-53
2021/10/30 03:18:43;;;;;;;14.52;9.50;;;;;;;14.19;74.15;100352.59;4993666;28;20287;-54
2021/10/30 03:21:09;;;;;;;13.80;9.18;;;;;;;13.89;75.07;100342.38;4994483;28;20517;-55
2021/10/30 03:23:34;;;;;;;15.05;9.50;;;;;;;13.75;75.87;100345.09;4996757;28;20583;-55
2021/10/30 03:26:00;;;;;;;12.93;8.88;;;;;;;13.85;75.37;100340.63;4983891;28;20473;-55
2021/10/30 03:28:26;;;;;;;16.05;9.43;;;;;;;13.80;75.50;100338.94;4991574;28;20580;-52
2021/10/30 03:30:51;;;;;;;15.30;8.88;;;;;;;13.83;75.47;100343.31;4994454;28;20077;-55
2021/10/30 03:33:16;;;;;;;12.52;8.18;;;;;;;13.81;75.62;100332.81;4993010;28;20128;-54
2021/10/30 03:35:42;;;;;;;15.52;8.90;;;;;;;13.75;76.33;100322.41;4995682;28;20048;-56
2021/10/30 03:38:07;;;;;;;16.75;8.85;;;;;;;14.04;75.30;100318.63;4990077;28;20041;-54
2021/10/30 03:40:33;;;;;;;14.52;9.02;;;;;;;14.14;74.73;100328.16;4998984;28;20154;-57
2021/10/30 03:42:58;;;;;;;15.00;8.88;;;;;;;14.05;75.46;100315.13;5000943;28;20075;-53
2021/10/30 03:45:24;;;;;;;15.68;9.10;;;;;;;14.09;75.31;100315.09;4992897;28;20108;-53
2021/10/30 03:47:49;;;;;;;14.30;8.88;;;;;;;14.11;75.11;100320.31;5000183;28;20068;-54
2021/10/30 03:50:15;;;;;;;12.93;8.80;;;;;;;14.04;75.52;100309.03;5001992;28;20669;-52
2021/10/30 03:52:43;;;;;;;12.98;9.20;;;;;;;14.05;75.45;100309.91;5014993;28;20115;-56
2021/10/30 03:55:09;;;;;;;14.57;9.30;;;;;;;14.05;75.60;100308.16;5026542;28;20053;-55
2021/10/30 03:57:35;;;;;;;15.20;9.43;;;;;;;14.06;75.47;100307.28;5011227;28;20852;-55
2021/10/30 04:00:00;;;;;;;13.45;9.38;;;;;;;14.04;75.71;100308.16;5003992;28;20564;-53
2021/10/30 04:02:25;;;;;;;13.55;9.30;;;;;;;13.99;75.74;100299.47;4993282;28;20436;-54
2021/10/30 04:04:51;;;;;;;13.32;9.55;;;;;;;14.04;75.35;100298.53;4999614;28;20080;-56
2021/10/30 04:07:17;;;;;;;14.02;9.50;;;;;;;14.01;75.39;100295.09;4995573;28;20053;-56
2021/10/30 04:09:42;;;;;;;15.45;9.80;;;;;;;13.96;75.61;100279.41;4997981;28;20575;-54
2021/10/30 04:12:08;;;;;;;14.88;10.18;;;;;;;13.99;75.57;100279.38;4994840;28;20136;-54
2021/10/30 04:14:34;;;;;;;13.85;9.75;;;;;;;13.79;76.08;100282.19;4995728;28;20416;-54
2021/10/30 04:16:59;;;;;;;14.60;10.60;;;;;;;13.87;75.61;100276.88;4995988;28;20211;-54
2021/10/30 04:19:24;;;;;;;15.15;10.77;;;;;;;13.78;76.28;100279.59;4993544;28;20128;-55
2021/10/30 04:21:50;;;;;;;16.13;10.52;;;;;;;13.75;76.29;100271.75;5002503;28;20065;-52
2021/10/30 04:24:15;;;;;;;15.70;10.70;;;;;;;13.79;76.32;100276.06;4996458;28;20112;-54
2021/10/30 04:26:41;;;;;;;15.73;10.65;;;;;;;13.78;76.36;100277.81;5001469;28;20045;-53
2021/10/30 04:29:07;;;;;;;16.58;10.57;;;;;;;13.76;76.47;100274.38;4997289;28;20049;-54
2021/10/30 04:31:33;;;;;;;15.85;10.68;;;;;;;13.68;76.83;100264.81;4996406;28;20104;-54
2021/10/30 04:34:03;;;;;;;18.73;11.07;;;;;;;13.73;76.82;100258.66;4999443;28;20041;-53
2021/10/30 04:36:31;;;;;;;22.60;11.10;;;;;;;13.72;76.77;100254.28;4999019;28;20050;-52
2021/10/30 04:38:58;;;;;;;17.90;11.13;;;;;;;13.66;77.15;100249.13;4996751;28;20127;-55
2021/10/30 04:41:24;;;;;;;18.52;11.73;;;;;;;13.50;77.81;100247.53;5002440;28;20457;-54
2021/10/30 04:43:49;;;;;;;18.60;10.88;;;;;;;13.70;77.51;100242.13;5000086;28;20087;-54
2021/10/30 04:46:17;;;;;;;18.00;11.02;;;;;;;13.78;76.88;100235.91;4991651;28;20330;-54
2021/10/30 04:48:43;;;;;;;16.85;11.07;;;;;;;13.78;77.11;100233.28;4998128;28;20513;-56
2021/10/30 04:51:08;;;;;;;16.42;11.40;;;;;;;13.71;77.26;100233.38;5001803;28;20523;-54
2021/10/30 04:53:34;;;;;;;17.58;11.15;;;;;;;13.76;77.00;100231.56;4997368;28;20041;-53
2021/10/30 04:56:01;;;;;;;18.13;11.07;;;;;;;13.81;76.83;100220.16;4990022;28;20095;-55
2021/10/30 04:58:27;;;;;;;16.70;11.00;;;;;;;13.78;76.88;100212.31;4994366;28;20046;-52
2021/10/30 05:00:52;;;;;;;17.45;11.10;;;;;;;13.82;76.79;100216.66;5000254;28;20674;-55
2021/10/30 05:03:17;;;;;;;17.67;11.13;;;;;;;13.79;77.02;100208.81;5002920;28;20038;-57
2021/10/30 05:05:43;;;;;;;18.17;11.07;;;;;;;13.78;77.00;100217.56;4998075;28;20064;-55
2021/10/30 05:08:08;;;;;;;17.88;10.63;;;;;;;13.69;77.31;100201.94;4993626;28;20411;-56
2021/10/30 05:10:34;;;;;;;20.85;11.52;;;;;;;13.71;77.49;100209.81;5002173;28;20137;-55
2021/10/30 05:12:59;;;;;;;18.80;11.23;;;;;;;13.75;77.46;100201.00;4994803;28;20111;-53
2021/10/30 05:15:24;;;;;;;17.85;10.93;;;;;;;13.65;78.05;100202.88;5012146;28;20029;-55
2021/10/30 05:17:57;;;;;;;20.45;11.63;;;;;;;13.72;77.77;100196.66;4998896;28;20531;-55
2021/10/30 05:20:23;;;;;;;16.38;10.65;;;;;;;13.85;77.49;100193.91;5003647;28;20136;-55
2021/10/30 05:22:48;;;;;;;19.55;11.05;;;;;;;13.77;77.90;100191.41;4993994;28;20535;-56
2021/10/30 05:25:13;;;;;;;17.45;11.40;;;;;;;13.73;78.22;100189.69;5003962;28;20747;-56
2021/10/30 05:27:39;;;;;;;19.10;10.70;;;;;;;13.82;78.02;100194.84;4999175;28;20789;-55
2021/10/30 05:30:05;;;;;;;17.80;10.80;;;;;;;13.75;78.01;100185.28;4990140;28;20420;-55
2021/10/30 05:32:30;;;;;;;19.15;11.05;;;;;;;13.72;78.71;100185.34;4999999;28;20572;-55
2021/10/30 05:34:55;;;;;;;19.48;10.68;;;;;;;13.69;78.76;100183.63;5000093;28;20038;-54
2021/10/30 05:37:21;;;;;;;19.80;11.27;;;;;;;13.76;78.61;100176.56;4999352;28;20060;-56
2021/10/30 05:39:46;;;;;;;16.67;9.88;;;;;;;13.80;78.21;100178.25;4995023;28;20308;-55
2021/10/30 05:42:13;;;;;;;16.77;10.02;;;;;;;13.93;78.20;100177.25;4994125;28;20135;-56
2021/10/30 05:44:39;;;;;;;17.45;10.38;;;;;;;13.81;78.33;100162.53;4998442;28;20232;-56
2021/10/30 05:47:09;;;;;;;17.15;10.25;;;;;;;13.84;78.00;100159.00;5012532;28;20041;-57
2021/10/30 05:49:36;;;;;;;18.65;10.10;;;;;;;13.83;78.17;100149.41;4997648;28;20747;-56
2021/10/30 05:52:02;;;;;;;18.13;10.63;;;;;;;13.85;78.20;100146.75;4994796;28;20037;-56
2021/10/30 05:54:27;;;;;;;16.95;9.85;;;;;;;13.83;78.27;100144.19;4997560;28;20397;-57
2021/10/30 05:56:53;;;;;;;16.35;9.68;;;;;;;13.84;78.25;100143.28;4996552;28;20069;-56
2021/10/30 05:59:18;;;;;;;17.95;10.10;;;;;;;13.90;78.71;100144.97;4993313;28;20073;-57
2021/10/30 06:01:44;;;;;;;19.63;9.55;;;;;;;13.86;78.31;100143.25;5013509;28;20108;-53
2021/10/30 06:04:09;;;;;;;18.05;9.75;;;;;;;14.01;77.80;100153.56;4998074;28;20041;-57
2021/10/30 06:06:35;;;;;;;21.73;10.10;;;;;;;13.86;78.08;100151.13;5004084;28;20038;-56
2021/10/30 06:09:00;;;;;;;15.73;10.02;;;;;;;13.86;78.71;100135.38;5004878;28;20368;-57
2021/10/30 06:11:28;;;;;;;13.50;9.30;;;;;;;13.80;78.60;100131.09;5002247;28;20096;-57
2021/10/30 06:13:54;;;;;;;16.63;9.93;;;;;;;13.87;78.42;100135.38;4990114;28;20041;-57
2021/10/30 06:16:19;;;;;;;17.63;10.25;;;;;;;13.81;78.66;100140.69;4995736;28;20072;-57
2021/10/30 06:18:45;;;;;;;15.30;9.73;;;;;;;13.98;78.04;100141.34;4998629;28;20067;-56
2021/10/30 06:21:10;;;;;;;18.45;9.90;;;;;;;14.04;77.85;100136.03;4990786;28;20041;-55
2021/10/30 06:23:36;;;;;;;19.13;9.75;;;;;;;13.95;78.01;100153.63;4998000;28;20041;-57
2021/10/30 06:26:02;;;;;;;19.20;9.90;;;;;;;13.87;78.55;100139.75;4995706;28;20044;-56
2021/10/30 06:28:28;;;;;;;17.73;10.43;;;;;;;13.96;78.42;100143.16;4995520;28;20333;-57
2021/10/30 06:30:53;;;;;;;18.42;10.00;;;;;;;14.02;77.76;100140.44;5006242;28;20965;-58
2021/10/30 06:33:19;;;;;;;16.85;9.52;;;;;;;14.04;77.96;100149.16;4994605;28;20053;-57
2021/10/30 06:35:44;;;;;;;17.35;9.85;;;;;;;14.08;78.08;100131.66;4999024;28;20486;-56
2021/10/30 06:38:11;;;;;;;16.55;9.90;;;;;;;14.07;77.82;100129.91;5009676;28;20568;-57
2021/10/30 06:40:39;;;;;;;15.15;9.95;;;;;;;14.00;78.27;100121.25;4997873;28;20038;-57
2021/10/30 06:43:05;;;;;;;16.35;9.45;;;;;;;14.13;77.93;100130.69;5001137;28;20046;-57
2021/10/30 06:45:30;;;;;;;15.35;8.93;;;;;;;14.25;77.40;100121.81;4999275;28;20353;-57
2021/10/30 06:47:56;;;;;;;15.05;9.68;;;;;;;13.93;78.64;100118.72;4988136;28;20159;-59
2021/10/30 06:50:22;;;;;;;13.65;9.10;;;;;;;14.21;78.09;100120.09;4994461;28;20064;-57
2021/10/30 06:52:51;;;;;;;14.52;9.10;;;;;;;14.21;77.85;100117.47;4997470;28;20052;-57
2021/10/30 06:55:18;;;;;;;17.85;9.20;;;;;;;14.13;77.89;100108.84;4997239;28;20639;-55
2021/10/30 06:57:44;;;;;;;13.32;8.55;;;;;;;13.90;78.55;100098.69;4993182;28;20360;-53
2021/10/30 07:00:10;;;;;;;14.18;8.93;;;;;;;14.07;78.10;100099.31;4995624;28;20037;-57
2021/10/30 07:02:36;;;;;;;17.42;9.52;;;;;;;14.05;77.91;100101.09;4996287;28;20397;-57
2021/10/30 07:05:02;;;;;;;14.55;8.07;;;;;;;14.19;78.23;100096.53;4996199;28;20292;-58
2021/10/30 07:07:27;;;;;;;14.07;8.57;;;;;;;14.08;77.92;100081.84;5023806;28;20398;-56
2021/10/30 07:09:59;;;;;;;16.77;9.20;;;;;;;14.09;78.25;100079.19;4996287;28;20504;-57
2021/10/30 07:12:33;;;;;;;14.10;8.80;;;;;;;14.25;77.46;100076.38;4997483;28;20467;-58
2021/10/30 07:14:58;;;;;;;13.23;8.35;;;;;;;14.27;77.30;100085.94;4997607;28;20398;-56
2021/10/30 07:17:24;;;;;;;16.60;8.57;;;;;;;14.17;77.45;100087.81;4996750;28;20707;-56
2021/10/30 07:19:50;;;;;;;13.93;8.50;;;;;;;14.19;77.39;100070.31;4999009;28;20087;-57
2021/10/30 07:22:15;;;;;;;14.07;8.35;;;;;;;14.19;77.55;100070.31;4992859;28;20089;-55
2021/10/30 07:24:41;;;;;;;15.25;8.57;;;;;;;14.17;77.53;100077.34;4996977;28;20037;-57
2021/10/30 07:27:07;;;;;;;14.57;8.52;;;;;;;14.16;77.44;100079.97;4996796;28;21663;-56
2021/10/30 07:29:33;;;;;;;15.82;9.10;;;;;;;14.11;77.77;100084.41;4998589;28;20380;-57
2021/10/30 07:31:58;;;;;;;15.43;9.07;;;;;;;14.28;77.33;100071.06;4987848;28;20044;-57
2021/10/30 07:34:23;;;;;;;16.23;8.80;;;;;;;14.27;77.39;100067.59;4995869;28;20151;-55
2021/10/30 07:36:49;;;;;;;15.18;9.13;;;;;;;14.34;77.15;100063.97;4998220;28;20160;-55
2021/10/30 07:39:14;;;;;;;14.52;8.60;;;;;;;13.95;78.15;100060.19;4996301;28;20042;-56
2021/10/30 07:41:42;;;;;;;15.88;8.30;;;;;;;14.31;77.25;100063.16;4999286;28;20072;-57
2021/10/30 07:44:08;;;;;;;15.38;8.68;;;;;;;14.07;78.01;100064.38;4988750;28;20487;-57
2021/10/30 07:46:35;;;;;;;14.75;8.75;;;;;;;14.31;77.17;100057.91;4994415;28;20697;-57
2021/10/30 07:49:00;;;;;;;13.50;8.75;;;;;;;14.19;77.63;100054.59;5002865;28;20689;-58
2021/10/30 07:51:29;;;;;;;12.98;8.35;;;;;;;14.21;77.75;100047.56;4999103;28;20152;-58
2021/10/30 07:53:54;;;;;;;15.07;8.88;;;;;;;14.28;77.43;100055.31;4994854;28;20565;-58
2021/10/30 07:56:20;;;;;;;12.55;8.05;;;;;;;14.14;77.83;100045.94;5003107;28;20037;-56
2021/10/30 07:58:45;;;;;;;12.48;8.30;;;;;;;14.05;78.23;100043.44;4997060;28;20139;-57
2021/10/30 08:01:11;;;;;;;12.88;8.63;;;;;;;14.21;77.56;100046.69;4990319;28;20353;-56
2021/10/30 08:03:37;;;;;;;13.35;8.50;;;;;;;14.28;77.59;100045.72;4997008;28;20073;-57
2021/10/30 08:06:02;;;;;;;15.88;8.35;;;;;;;14.50;76.85;100036.69;4987029;28;20045;-58
2021/10/30 08:08:29;;;;;;;12.10;8.15;;;;;;;14.25;77.40;100029.16;4997969;28;20065;-58
2021/10/30 08:10:55;;;;;;;13.05;7.88;;;;;;;14.47;76.88;100027.97;4993203;28;20209;-55
2021/10/30 08:13:21;;;;;;;13.18;7.93;;;;;;;14.36;76.98;100035.13;4997591;28;20057;-57
2021/10/30 08:15:46;;;;;;;11.55;7.88;;;;;;;14.41;76.92;100034.19;4996633;28;20560;-58
2021/10/30 08:18:11;;;;;;;12.05;7.90;;;;;;;14.45;76.96;100040.25;4988928;28;20340;-57
2021/10/30 08:20:37;;;;;;;11.23;7.00;;;;;;;14.57;76.45;100032.19;4999364;28;20133;-56
2021/10/30 08:23:02;;;;;;;10.77;7.03;;;;;;;14.63;76.35;100034.72;4995933;28;20040;-56
2021/10/30 08:25:28;;;;;;;12.00;7.15;;;;;;;14.70;76.40;100035.50;4995622;28;20045;-57
2021/10/30 08:27:54;;;;;;;10.88;6.95;;;;;;;14.63;76.18;100046.97;4990770;28;20580;-57
2021/10/30 08:30:20;;;;;;;12.02;7.25;;;;;;;14.75;75.79;100041.53;4994465;28;20057;-57
2021/10/30 08:32:45;;;;;;;11.05;7.07;;;;;;;14.73;75.92;100043.28;4997676;28;20085;-58
2021/10/30 08:35:11;;;;;;;11.95;6.93;;;;;;;14.62;76.27;100048.72;4999275;28;20049;-58
2021/10/30 08:37:38;;;;;;;12.55;6.57;;;;;;;14.72;76.48;100036.31;4992041;28;20061;-57
2021/10/30 08:40:05;;;;;;;9.65;6.93;;;;;;;14.72;75.92;100026.69;4993596;28;20105;-57
2021/10/30 08:42:33;;;;;;;8.95;6.63;;;;;;;14.80;75.87;100024.81;4999487;28;20379;-57
2021/10/30 08:44:58;;;;;;;11.18;6.95;;;;;;;14.71;76.09;100024.06;5007209;28;20078;-57
2021/10/30 08:47:24;;;;;;;10.15;6.45;;;;;;;14.69;76.15;100012.75;4999914;28;20580;-57
2021/10/30 08:49:50;;;;;;;9.02;6.40;;;;;;;14.71;76.16;100017.06;4995394;28;20338;-58
2021/10/30 08:52:15;;;;;;;7.85;5.90;;;;;;;14.76;75.80;100009.16;4988338;28;20050;-55
2021/10/30 08:54:40;;;;;;;7.70;5.80;;;;;;;14.86;75.62;100015.97;4998135;28;20058;-54
2021/10/30 08:57:06;;;;;;;8.85;6.30;;;;;;;14.87;75.59;100015.94;4996320;28;20472;-57
2021/10/30 08:59:41;;;;;;;10.98;6.32;;;;;;;14.94;75.64;100014.06;4992979;28;20575;-56
2021/10/30 09:02:08;;;;;;;11.05;6.28;;;;;;;14.99;75.51;100007.84;4987538;28;20405;-56
2021/10/30 09:04:34;;;;;;;8.98;6.40;;;;;;;14.94;75.95;100019.31;4994689;28;20505;-56
2021/10/30 09:07:04;;;;;;;8.20;6.07;;;;;;;14.95;76.00;100021.03;4996179;28;20061;-53
2021/10/30 09:09:31;;;;;;;11.13;6.38;;;;;;;14.88;76.16;100012.41;4995060;28;20505;-57
2021/10/30 09:12:03;;;;;;;10.05;6.07;;;;;;;14.97;75.76;100012.25;4995185;28;20115;-57
2021/10/30 09:14:43;;;;;;;10.43;6.47;;;;;;;14.95;76.10;100013.16;4999099;28;20142;-57
2021/10/30 09:17:15;;;;;;;9.23;5.95;;;;;;;14.92;76.28;100011.47;4995633;28;20509;-56
2021/10/30 09:19:53;;;;;;;10.95;6.20;;;;;;;14.81;76.75;100000.31;4996933;28;20034;-59
2021/10/30 09:22:20;;;;;;;9.68;6.22;;;;;;;14.91;76.48;99996.59;4993896;28;20033;-57
2021/10/30 09:25:04;;;;;;;9.68;6.28;;;;;;;14.87;76.59;99997.56;5003746;28;20044;-57
2021/10/30 09:27:54;;;;;;;11.23;6.40;;;;;;;14.85;76.72;99991.47;4992805;28;20041;-57
2021/10/30 09:30:31;;;;;;;11.25;6.32;;;;;;;14.90;76.71;100000.13;4994200;28;20320;-58
2021/10/30 09:33:01;;;;;;;7.85;5.95;;;;;;;14.76;77.03;99996.88;4997775;28;20108;-60
2021/10/30 09:35:45;;;;;;;10.05;6.50;;;;;;;14.83;76.92;99997.63;4993394;28;20641;-58
2021/10/30 09:38:32;;;;;;;9.38;6.60;;;;;;;14.89;76.80;99992.28;4992950;28;20764;-58
2021/10/30 09:40:59;;;;;;;9.35;5.85;;;;;;;14.96;76.67;99989.50;4988108;28;20077;-56
2021/10/30 09:43:25;;;;;;;11.55;6.20;;;;;;;14.93;76.77;99991.34;4999728;28;20128;-57
2021/10/30 09:46:03;;;;;;;9.45;6.30;;;;;;;15.00;76.35;99995.59;4991910;28;20405;-57
2021/10/30 09:48:31;;;;;;;8.38;6.18;;;;;;;14.98;76.70;99992.97;5023252;28;20052;-57
2021/10/30 09:50:58;;;;;;;9.15;6.35;;;;;;;15.12;76.32;99984.00;4994951;28;20077;-58
2021/10/30 09:53:25;;;;;;;8.25;6.20;;;;;;;15.06;76.40;99995.47;4998113;28;20425;-57
2021/10/30 09:55:52;;;;;;;9.13;6.43;;;;;;;15.11;76.50;99984.88;4994859;28;20055;-56
2021/10/30 09:58:27;;;;;;;9.05;6.15;;;;;;;15.04;76.64;99984.13;4993550;28;20042;-55
2021/10/30 10:00:55;;;;;;;10.02;5.82;;;;;;;15.15;76.43;99986.53;4998348;28;20349;-57
2021/10/30 10:03:22;;;;;;;7.30;5.82;;;;;;;15.17;76.08;99983.00;4993415;28;20033;-59
2021/10/30 10:05:47;;;;;;;7.32;5.32;;;;;;;15.21;75.78;99992.53;5002764;28;20041;-57
2021/10/30 10:08:13;;;;;;;8.85;6.32;;;;;;;15.07;76.69;99988.44;4995601;28;20665;-58
2021/10/30 10:10:38;;;;;;;9.07;6.13;;;;;;;15.17;76.62;99983.00;4992822;28;20452;-56
2021/10/30 10:13:03;;;;;;;7.88;5.85;;;;;;;15.28;76.15;99970.53;4998865;28;20046;-57
2021/10/30 10:15:30;;;;;;;7.47;5.82;;;;;;;15.17;76.29;99980.38;4998364;28;20524;-57
2021/10/30 10:17:58;;;;;;;9.18;6.25;;;;;;;15.25;76.21;99973.19;4995662;28;20041;-58
2021/10/30 10:20:24;;;;;;;9.43;5.72;;;;;;;15.43;75.60;99974.56;4997378;28;20045;-57
2021/10/30 10:22:49;;;;;;;8.43;5.68;;;;;;;15.47;75.28;99973.63;4998304;28;20056;-57
2021/10/30 10:25:26;;;;;;;7.63;5.40;;;;;;;15.44;75.31;99982.44;5002069;28;20418;-60
2021/10/30 10:27:52;;;;;;;8.45;6.18;;;;;;;15.50;75.31;99977.94;4993035;28;20045;-58
2021/10/30 10:30:17;;;;;;;8.52;5.90;;;;;;;15.28;75.67;99969.66;4993363;28;20707;-57
2021/10/30 10:32:43;;;;;;;7.07;5.88;;;;;;;15.20;75.95;99969.81;4994324;28;20049;-59
2021/10/30 10:35:14;;;;;;;7.38;5.80;;;;;;;15.37;75.71;99959.81;5025512;28;20577;-58
2021/10/30 10:37:48;;;;;;;11.75;5.57;;;;;;;15.18;76.74;99958.47;5001145;28;20548;-56
2021/10/30 10:40:31;;;;;;;7.77;5.43;;;;;;;15.15;76.53;99950.66;4992800;28;20406;-56
2021/10/30 10:42:57;;;;;;;8.95;5.70;;;;;;;15.44;75.75;99952.66;4998810;28;20376;-56
2021/10/30 10:45:22;;;;;;;6.72;5.22;;;;;;;15.17;76.75;99946.25;4997801;28;20041;-57
2021/10/30 10:47:55;;;;;;;7.65;5.38;;;;;;;15.41;75.87;99958.88;4997938;28;20064;-58
2021/10/30 10:50:26;;;;;;;9.75;5.57;;;;;;;15.58;75.61;99939.28;4994121;28;20098;-58
2021/10/30 10:53:01;;;;;;;7.32;5.60;;;;;;;15.55;76.10;99945.50;4998485;28;20071;-59
2021/10/30 10:55:29;;;;;;;6.70;5.50;;;;;;;15.50;75.97;99946.41;4998741;28;20050;-58
2021/10/30 10:58:00;;;;;;;7.15;5.45;;;;;;;15.61;75.51;99944.50;4991874;28;20048;-59
2021/10/30 11:00:25;;;;;;;8.07;5.43;;;;;;;15.58;75.62;99945.41;4997981;28;20429;-58
2021/10/30 11:02:50;;;;;;;6.95;5.53;;;;;;;15.65;75.43;99941.75;4993687;28;20046;-57
2021/10/30 11:05:22;;;;;;;6.90;5.60;;;;;;;15.54;75.55;99935.00;4993277;28;20042;-60
2021/10/30 11:07:50;;;;;;;7.20;5.30;;;;;;;15.60;75.22;99940.13;4978243;28;20038;-58
2021/10/30 11:10:26;;;;;;;8.23;5.72;;;;;;;15.41;76.11;99935.25;4990654;28;20131;-56
2021/10/30 11:13:00;;;;;;;10.25;5.80;;;;;;;15.52;75.92;99926.25;4987086;28;20840;-56
2021/10/30 11:15:32;;;;;;;8.02;5.65;;;;;;;15.52;75.65;99924.53;4998901;28;20384;-58